Time;durP1;ratioP1;P1;durP2;ratioP2;P2;SDS_P1;SDS_P2;PMS_P1;PMS_P2;Temp;Humidity;BMP_temperature;BMP_pressure;BME280_temperature;BME280_humidity;BME280_pressure;Samples;Min_cycle;Max_cycle;Signal;HPM_P1;HPM_P2
2021/11/11 00:01:39;;;;;;;23.87;16.70;;;3.00;99.00;;;;;;2611258;54;20155;-71
2021/11/11 00:04:06;;;;;;;23.53;17.57;;;3.10;98.40;;;;;;2613445;39;20840;-72
2021/11/11 00:06:32;;;;;;;21.63;17.60;;;3.20;98.10;;;;;;2611700;54;20930;-71
2021/11/11 00:08:58;;;;;;;21.30;16.60;;;3.30;97.60;;;;;;2613265;54;20536;-71
2021/11/11 00:11:23;;;;;;;20.83;15.47;;;3.30;97.60;;;;;;2612681;54;20420;-71
2021/11/11 00:13:49;;;;;;;23.43;16.30;;;3.20;97.50;;;;;;2611745;47;20159;-70
2021/11/11 00:16:15;;;;;;;33.80;18.07;;;3.10;97.50;;;;;;2610774;54;20162;-71
2021/11/11 00:18:41;;;;;;;30.43;17.83;;;3.00;97.50;;;;;;2612167;54;20171;-71
2021/11/11 00:21:08;;;;;;;28.37;18.83;;;3.00;97.50;;;;;;2611613;54;20423;-72
2021/11/11 00:23:33;;;;;;;23.77;17.13;;;3.00;98.60;;;;;;2612827;54;20411;-71
2021/11/11 00:25:59;;;;;;;29.53;16.57;;;3.00;99.80;;;;;;2611694;54;20519;-71
2021/11/11 00:28:25;;;;;;;23.80;17.27;;;2.90;99.90;;;;;;2611587;54;20379;-71
2021/11/11 00:30:51;;;;;;;23.50;18.40;;;2.80;99.90;;;;;;2612038;54;20668;-71
2021/11/11 00:33:16;;;;;;;24.17;17.30;;;2.80;99.90;;;;;;2609654;39;20573;-72
2021/11/11 00:35:42;;;;;;;21.30;15.77;;;3.00;99.80;;;;;;2611129;54;20143;-72
2021/11/11 00:38:08;;;;;;;20.63;16.10;;;3.10;98.70;;;;;;2613098;54;20266;-72
2021/11/11 00:40:35;;;;;;;26.10;17.60;;;3.00;98.70;;;;;;2612139;54;20166;-71
2021/11/11 00:43:02;;;;;;;21.33;17.27;;;2.90;98.80;;;;;;2611731;54;21397;-72
2021/11/11 00:45:28;;;;;;;18.60;15.80;;;2.70;99.20;;;;;;2611770;54;20387;-71
2021/11/11 00:47:55;;;;;;;20.23;17.00;;;2.90;99.00;;;;;;2610264;54;20555;-72
2021/11/11 00:50:23;;;;;;;21.77;16.20;;;3.00;98.10;;;;;;2610867;47;20428;-73
2021/11/11 00:52:50;;;;;;;20.63;16.67;;;3.10;97.80;;;;;;2613121;54;20410;-69
2021/11/11 00:55:17;;;;;;;21.70;15.90;;;2.80;97.70;;;;;;2610819;39;20772;-72
2021/11/11 00:58:05;;;;;;;27.53;14.30;;;2.80;98.40;;;;;;2612020;54;20415;-72
2021/11/11 01:00:35;;;;;;;20.40;15.67;;;2.90;98.00;;;;;;2609908;54;20567;-74
2021/11/11 01:03:01;;;;;;;28.73;16.57;;;2.80;97.90;;;;;;2610959;54;20824;-71
2021/11/11 01:05:26;;;;;;;21.00;16.00;;;2.80;98.10;;;;;;2612760;54;20407;-70
2021/11/11 01:07:53;;;;;;;19.67;15.73;;;2.80;98.20;;;;;;2612514;39;21686;-71
2021/11/11 01:10:20;;;;;;;20.00;16.57;;;2.70;98.00;;;;;;2611150;54;20185;-71
2021/11/11 01:12:48;;;;;;;18.80;15.73;;;2.50;99.20;;;;;;2613964;54;20420;-72
2021/11/11 01:15:17;;;;;;;20.90;17.73;;;2.80;98.70;;;;;;2614972;54;20399;-72
2021/11/11 01:17:44;;;;;;;30.53;16.97;;;2.80;97.60;;;;;;2612932;54;20418;-72
2021/11/11 01:20:11;;;;;;;26.03;17.07;;;2.60;97.90;;;;;;2613259;50;20954;-71
2021/11/11 01:22:39;;;;;;;20.77;15.97;;;2.70;97.80;;;;;;2613961;54;20398;-74
2021/11/11 01:25:10;;;;;;;24.00;17.70;;;2.80;97.60;;;;;;2612275;54;20423;-71
2021/11/11 01:27:37;;;;;;;20.20;16.70;;;2.90;97.40;;;;;;2612295;54;20454;-71
2021/11/11 01:30:09;;;;;;;22.13;16.83;;;2.80;97.20;;;;;;2614614;54;21010;-72
2021/11/11 01:32:36;;;;;;;26.10;16.97;;;2.80;97.40;;;;;;2611263;51;20447;-73
2021/11/11 01:35:03;;;;;;;25.17;16.20;;;2.80;97.40;;;;;;2610084;54;20423;-71
2021/11/11 01:37:29;;;;;;;24.40;16.43;;;2.70;97.70;;;;;;2612910;46;20542;-72
2021/11/11 01:39:56;;;;;;;21.90;17.50;;;2.60;97.90;;;;;;2611873;47;20510;-71
2021/11/11 01:42:23;;;;;;;21.10;16.37;;;2.50;98.30;;;;;;2612020;54;20487;-72
2021/11/11 01:44:53;;;;;;;26.80;15.80;;;2.40;98.60;;;;;;2613468;39;20782;-71
2021/11/11 01:47:24;;;;;;;20.57;16.50;;;2.50;98.30;;;;;;2613346;46;20978;-70
2021/11/11 01:49:52;;;;;;;24.13;17.77;;;2.70;97.70;;;;;;2612945;54;20415;-70
2021/11/11 01:52:18;;;;;;;19.43;15.70;;;2.70;97.30;;;;;;2612768;54;20553;-72
2021/11/11 01:54:51;;;;;;;22.37;16.47;;;2.60;97.30;;;;;;2611286;54;20417;-70
2021/11/11 01:57:17;;;;;;;24.17;17.67;;;2.50;97.80;;;;;;2612377;49;20431;-71
2021/11/11 01:59:47;;;;;;;20.00;15.63;;;2.70;97.30;;;;;;2612172;47;20445;-70
2021/11/11 02:02:22;;;;;;;26.37;17.90;;;2.60;97.30;;;;;;2611423;54;20434;-72
2021/11/11 02:04:48;;;;;;;26.03;17.00;;;2.50;97.20;;;;;;2611660;54;20463;-72
2021/11/11 02:07:15;;;;;;;25.13;16.90;;;2.50;97.40;;;;;;2613016;54;20984;-70
2021/11/11 02:09:49;;;;;;;23.23;16.53;;;2.70;97.30;;;;;;2613369;47;20154;-75
2021/11/11 02:12:33;;;;;;;22.77;17.37;;;2.50;97.30;;;;;;2612177;47;20420;-74
2021/11/11 02:15:04;;;;;;;18.50;16.43;;;2.40;97.60;;;;;;2613010;54;20406;-72
2021/11/11 02:17:32;;;;;;;19.23;16.73;;;2.50;97.20;;;;;;2613523;39;20725;-73
2021/11/11 02:20:05;;;;;;;23.60;18.03;;;2.30;97.70;;;;;;2612393;54;20436;-70
2021/11/11 02:22:55;;;;;;;20.93;16.27;;;2.60;97.30;;;;;;2612251;39;20836;-71
2021/11/11 02:25:30;;;;;;;27.90;17.20;;;2.50;97.20;;;;;;2613380;51;20411;-71
2021/11/11 02:28:00;;;;;;;27.00;18.07;;;2.30;97.40;;;;;;2611289;54;20513;-74
2021/11/11 02:30:27;;;;;;;20.20;16.47;;;2.50;97.20;;;;;;2613838;54;20422;-71
2021/11/11 02:32:56;;;;;;;23.57;16.47;;;2.40;97.20;;;;;;2612705;39;20858;-73
2021/11/11 02:35:22;;;;;;;23.30;15.50;;;2.10;97.70;;;;;;2609946;54;20541;-70
2021/11/11 02:37:51;;;;;;;16.67;14.60;;;2.20;98.00;;;;;;2609790;39;21341;-73
2021/11/11 02:40:32;;;;;;;25.57;15.93;;;2.20;98.10;;;;;;2611932;51;20965;-70
2021/11/11 02:42:58;;;;;;;24.43;16.43;;;2.20;98.60;;;;;;2612895;54;20371;-70
2021/11/11 02:45:30;;;;;;;21.20;16.10;;;2.30;98.90;;;;;;2613236;54;20991;-72
2021/11/11 02:48:03;;;;;;;20.70;15.27;;;2.60;98.20;;;;;;2612674;46;20494;-72
2021/11/11 02:50:37;;;;;;;23.27;16.50;;;2.70;97.40;;;;;;2612481;54;20958;-72
2021/11/11 02:53:04;;;;;;;17.87;14.93;;;2.60;97.30;;;;;;2611222;47;20791;-71
2021/11/11 02:55:30;;;;;;;24.40;16.30;;;2.60;96.80;;;;;;2613859;54;20415;-70
2021/11/11 02:57:57;;;;;;;21.83;16.90;;;2.60;96.50;;;;;;2610844;51;20544;-70
2021/11/11 03:00:34;;;;;;;18.80;15.70;;;2.30;97.20;;;;;;2612036;39;20819;-72
2021/11/11 03:03:00;;;;;;;21.47;16.13;;;2.30;98.10;;;;;;2612012;54;20487;-71
2021/11/11 03:05:33;;;;;;;21.90;15.73;;;2.20;97.80;;;;;;2614277;54;20987;-70
2021/11/11 03:08:04;;;;;;;21.23;15.63;;;2.20;97.70;;;;;;2612246;54;20658;-70
2021/11/11 03:10:33;;;;;;;21.60;16.10;;;2.50;96.90;;;;;;2612720;47;20437;-73
2021/11/11 03:13:00;;;;;;;25.03;18.60;;;2.50;96.80;;;;;;2611799;51;20943;-71
2021/11/11 03:15:28;;;;;;;25.10;15.80;;;2.50;96.50;;;;;;2613196;47;20432;-70
2021/11/11 03:17:54;;;;;;;19.50;14.80;;;2.30;96.80;;;;;;2612975;54;20430;-71
2021/11/11 03:20:21;;;;;;;17.87;14.70;;;2.20;97.10;;;;;;2612356;39;20866;-72
2021/11/11 03:22:48;;;;;;;28.30;15.30;;;2.10;97.10;;;;;;2613454;31;20918;-71
2021/11/11 03:25:16;;;;;;;22.00;15.60;;;2.20;97.20;;;;;;2614277;31;21027;-71
2021/11/11 03:27:43;;;;;;;20.73;16.13;;;2.10;97.20;;;;;;2610779;54;20970;-72
2021/11/11 03:30:16;;;;;;;21.03;15.70;;;2.00;97.50;;;;;;2612799;54;20403;-70
2021/11/11 03:32:43;;;;;;;20.00;14.93;;;1.80;97.70;;;;;;2609083;47;20428;-71
2021/11/11 03:35:11;;;;;;;21.70;15.33;;;2.00;97.70;;;;;;2609854;54;20407;-71
2021/11/11 03:37:42;;;;;;;17.83;14.40;;;2.20;97.30;;;;;;2610983;47;20431;-74
2021/11/11 03:40:12;;;;;;;22.33;15.93;;;2.20;97.30;;;;;;2612368;51;20402;-70
2021/11/11 03:42:42;;;;;;;24.13;14.70;;;1.90;97.70;;;;;;2611066;54;20415;-71
2021/11/11 03:45:09;;;;;;;21.13;15.93;;;1.90;98.10;;;;;;2611869;54;20423;-70
2021/11/11 03:47:37;;;;;;;21.87;15.37;;;2.20;97.90;;;;;;2612382;54;20399;-71
2021/11/11 03:50:04;;;;;;;21.70;13.97;;;2.20;97.70;;;;;;2609791;54;21096;-70
2021/11/11 03:52:30;;;;;;;22.63;15.83;;;2.30;97.50;;;;;;2608687;47;20423;-73
2021/11/11 03:54:56;;;;;;;20.20;15.47;;;2.40;97.20;;;;;;2609803;54;20475;-70
2021/11/11 03:57:24;;;;;;;22.07;15.77;;;2.10;97.10;;;;;;2609390;54;21179;-71
2021/11/11 03:59:50;;;;;;;18.40;14.50;;;2.00;97.40;;;;;;2610266;54;20439;-71
2021/11/11 04:02:23;;;;;;;21.83;17.00;;;2.20;97.30;;;;;;2608770;47;20443;-73
2021/11/11 04:04:49;;;;;;;22.13;15.57;;;2.20;97.10;;;;;;2610513;50;20458;-71
2021/11/11 04:07:15;;;;;;;20.97;16.37;;;2.20;97.00;;;;;;2608918;54;20419;-72
2021/11/11 04:09:41;;;;;;;23.50;15.43;;;2.20;96.80;;;;;;2609328;54;20999;-72
2021/11/11 04:12:07;;;;;;;24.63;16.07;;;2.00;97.00;;;;;;2610478;54;20168;-71
2021/11/11 04:14:33;;;;;;;30.17;17.67;;;2.00;97.00;;;;;;2609087;53;20417;-71
2021/11/11 04:16:59;;;;;;;23.90;15.50;;;1.90;97.50;;;;;;2608973;54;20484;-74
2021/11/11 04:19:26;;;;;;;20.17;15.97;;;1.90;98.00;;;;;;2611112;39;20878;-72
2021/11/11 04:21:52;;;;;;;22.13;16.57;;;2.00;97.10;;;;;;2611079;54;20493;-71
2021/11/11 04:24:18;;;;;;;23.57;16.90;;;1.90;98.00;;;;;;2610652;54;20494;-71
2021/11/11 04:26:55;;;;;;;21.17;16.30;;;1.80;98.90;;;;;;2609569;47;20967;-71
2021/11/11 04:29:24;;;;;;;20.50;17.10;;;1.80;98.30;;;;;;2608963;54;20191;-70
2021/11/11 04:31:58;;;;;;;25.97;18.10;;;2.00;98.60;;;;;;2609530;54;20418;-70
2021/11/11 04:34:26;;;;;;;27.67;19.97;;;2.10;98.70;;;;;;2609956;39;20775;-71
2021/11/11 05:03:46;;;;;;;29.23;17.33;;;1.80;97.60;;;;;;2613442;54;20394;-71
2021/11/11 05:06:12;;;;;;;24.17;17.23;;;1.90;97.80;;;;;;2612615;54;20427;-70
2021/11/11 05:08:39;;;;;;;25.80;18.50;;;1.90;97.80;;;;;;2614709;54;20443;-71
2021/11/11 05:11:05;;;;;;;23.90;16.63;;;1.90;97.60;;;;;;2612752;47;20415;-72
2021/11/11 05:13:31;;;;;;;23.23;18.73;;;2.00;97.80;;;;;;2614172;54;20439;-74
2021/11/11 05:16:00;;;;;;;22.57;17.00;;;1.90;97.70;;;;;;2613284;39;20891;-71
2021/11/11 05:18:26;;;;;;;27.57;17.30;;;2.00;97.70;;;;;;2611167;54;20425;-70
2021/11/11 05:20:52;;;;;;;25.27;16.10;;;2.00;97.70;;;;;;2612793;54;20406;-71
2021/11/11 05:23:18;;;;;;;28.47;17.20;;;1.90;97.50;;;;;;2613930;54;20426;-70
2021/11/11 05:25:45;;;;;;;26.40;18.30;;;2.00;97.40;;;;;;2611600;54;20834;-72
2021/11/11 05:28:12;;;;;;;27.10;17.07;;;1.90;97.80;;;;;;2612250;39;20504;-70
2021/11/11 05:30:38;;;;;;;26.00;19.13;;;2.00;98.70;;;;;;2613858;54;20422;-71
2021/11/11 05:33:04;;;;;;;30.20;18.50;;;1.90;99.30;;;;;;2609939;54;20440;-72
2021/11/11 05:35:30;;;;;;;23.37;17.30;;;2.10;98.70;;;;;;2609002;54;20439;-71
2021/11/11 05:37:57;;;;;;;22.37;18.50;;;2.20;98.00;;;;;;2612909;54;20423;-70
2021/11/11 05:40:24;;;;;;;27.43;16.90;;;2.00;97.80;;;;;;2612749;47;20403;-71
2021/11/11 05:42:51;;;;;;;28.70;17.20;;;1.90;98.20;;;;;;2612322;46;20561;-74
2021/11/11 05:45:18;;;;;;;26.03;16.60;;;1.90;98.20;;;;;;2612606;54;20972;-70
2021/11/11 05:47:46;;;;;;;25.50;17.47;;;1.80;98.50;;;;;;2612752;47;20459;-71
2021/11/11 05:50:15;;;;;;;22.90;16.83;;;1.70;99.10;;;;;;2612928;47;20431;-71
2021/11/11 05:52:41;;;;;;;28.63;18.30;;;1.70;99.80;;;;;;2611326;47;20431;-72
2021/11/11 05:55:08;;;;;;;31.97;18.13;;;1.80;99.90;;;;;;2613312;39;21082;-71
2021/11/11 05:57:35;;;;;;;26.70;19.90;;;1.90;99.70;;;;;;2611199;54;20442;-71
2021/11/11 06:00:03;;;;;;;28.40;19.57;;;1.80;99.90;;;;;;2613415;54;20431;-74
2021/11/11 06:02:29;;;;;;;30.53;18.33;;;1.90;99.90;;;;;;2611727;54;20415;-71
2021/11/11 06:04:55;;;;;;;29.93;19.10;;;1.80;99.90;;;;;;2610913;47;21017;-71
2021/11/11 06:07:24;;;;;;;27.00;18.80;;;1.90;99.90;;;;;;2608941;54;20506;-72
2021/11/11 06:09:49;;;;;;;27.90;19.20;;;2.00;99.90;;;;;;2612688;54;20400;-70
2021/11/11 06:12:15;;;;;;;28.40;19.97;;;2.10;99.60;;;;;;2612512;39;20602;-70
2021/11/11 06:14:41;;;;;;;28.27;18.87;;;2.10;99.90;;;;;;2613349;47;20238;-72
2021/11/11 06:17:07;;;;;;;24.63;17.40;;;2.00;99.90;;;;;;2612836;54;20460;-72
2021/11/11 06:19:35;;;;;;;29.70;19.07;;;2.20;99.30;;;;;;2612753;47;20166;-70
2021/11/11 06:22:01;;;;;;;26.40;16.70;;;2.30;98.30;;;;;;2611753;54;20442;-73
2021/11/11 06:24:28;;;;;;;26.73;17.73;;;2.30;97.90;;;;;;2611923;54;20415;-71
2021/11/11 06:26:55;;;;;;;30.00;17.90;;;2.40;97.80;;;;;;2610643;54;20406;-71
2021/11/11 06:29:21;;;;;;;28.10;17.83;;;2.30;97.40;;;;;;2611797;54;20446;-74
2021/11/11 06:31:48;;;;;;;27.53;18.60;;;2.00;97.80;;;;;;2612489;47;20442;-70
2021/11/11 06:34:20;;;;;;;26.67;17.70;;;2.10;97.80;;;;;;2608634;54;20399;-71
2021/11/11 06:36:46;;;;;;;25.20;18.47;;;2.00;97.70;;;;;;2606118;54;20416;-72
2021/11/11 06:39:12;;;;;;;26.57;18.93;;;2.00;98.10;;;;;;2607123;47;20708;-75
2021/11/11 06:41:38;;;;;;;23.00;18.07;;;2.10;98.00;;;;;;2608818;54;20182;-72
2021/11/11 06:44:04;;;;;;;31.00;19.00;;;1.90;98.10;;;;;;2608360;39;20511;-73
2021/11/11 06:46:31;;;;;;;38.53;19.47;;;1.80;98.60;;;;;;2610459;54;20155;-72
2021/11/11 06:48:57;;;;;;;27.43;18.17;;;1.90;99.00;;;;;;2609865;54;20516;-72
2021/11/11 06:51:23;;;;;;;28.83;19.80;;;2.10;98.60;;;;;;2610144;54;20427;-72
2021/11/11 06:53:49;;;;;;;29.90;20.57;;;2.10;98.40;;;;;;2606210;54;20429;-72
2021/11/11 06:56:15;;;;;;;28.30;19.30;;;2.20;98.30;;;;;;2609794;39;20886;-72
2021/11/11 06:58:41;;;;;;;28.07;19.80;;;2.20;98.40;;;;;;2610238;54;20414;-72
2021/11/11 07:01:07;;;;;;;34.10;19.53;;;2.30;98.20;;;;;;2609795;54;20514;-73
2021/11/11 07:03:33;;;;;;;28.90;20.90;;;2.20;98.40;;;;;;2611079;51;20462;-72
2021/11/11 07:05:59;;;;;;;26.53;16.57;;;2.30;98.80;;;;;;2609651;47;20438;-73
2021/11/11 07:08:26;;;;;;;26.20;19.00;;;2.50;98.20;;;;;;2606086;54;20492;-73
2021/11/11 07:10:54;;;;;;;21.97;17.20;;;2.60;98.40;;;;;;2611115;54;20424;-74
2021/11/11 07:13:21;;;;;;;24.53;18.57;;;2.60;98.00;;;;;;2609718;47;20405;-73
2021/11/11 07:15:48;;;;;;;31.93;18.90;;;2.50;98.00;;;;;;2611449;54;20405;-74
2021/11/11 07:18:15;;;;;;;34.90;20.60;;;2.30;98.50;;;;;;2610285;46;20999;-73
2021/11/11 07:20:48;;;;;;;27.23;19.43;;;2.50;99.20;;;;;;2609038;54;20395;-74
2021/11/11 07:23:16;;;;;;;24.20;18.70;;;2.70;98.80;;;;;;2610845;39;20819;-71
2021/11/11 07:25:42;;;;;;;26.47;19.07;;;2.90;98.60;;;;;;2610045;54;20483;-73
2021/11/11 07:28:08;;;;;;;29.10;20.20;;;2.90;98.30;;;;;;2610638;54;20424;-74
2021/11/11 07:30:34;;;;;;;30.30;20.00;;;3.00;98.20;;;;;;2609652;54;20434;-72
2021/11/11 07:33:01;;;;;;;28.37;21.53;;;3.00;98.30;;;;;;2609683;54;20434;-77
2021/11/11 07:35:27;;;;;;;35.27;23.43;;;3.10;98.30;;;;;;2611121;54;20446;-72
2021/11/11 07:37:53;;;;;;;34.30;20.77;;;3.20;98.30;;;;;;2610138;47;20435;-73
2021/11/11 07:40:23;;;;;;;29.73;19.03;;;3.20;98.10;;;;;;2609093;54;20412;-75
2021/11/11 07:42:49;;;;;;;28.30;21.23;;;3.00;98.30;;;;;;2608593;54;20399;-72
2021/11/11 07:45:19;;;;;;;36.20;21.60;;;2.80;99.40;;;;;;2610283;47;20426;-73
2021/11/11 07:47:45;;;;;;;27.43;19.00;;;2.60;99.90;;;;;;2612309;39;20853;-72
2021/11/11 07:50:11;;;;;;;35.80;22.40;;;2.70;99.90;;;;;;2610841;54;20430;-72
2021/11/11 07:52:38;;;;;;;31.30;22.00;;;3.10;99.90;;;;;;2610955;54;20411;-74
2021/11/11 07:55:05;;;;;;;32.70;21.33;;;3.20;99.90;;;;;;2611963;47;20423;-71
2021/11/11 07:57:32;;;;;;;35.60;23.70;;;3.60;99.90;;;;;;2610858;54;20419;-72
2021/11/11 07:59:59;;;;;;;35.63;24.97;;;3.90;99.90;;;;;;2609401;54;21081;-72
2021/11/11 08:02:25;;;;;;;44.13;26.57;;;4.10;99.90;;;;;;2611542;54;20475;-72
2021/11/11 08:04:52;;;;;;;41.53;27.53;;;4.70;99.90;;;;;;2611099;47;20420;-72
2021/11/11 08:07:18;;;;;;;40.10;25.27;;;5.10;99.90;;;;;;2610743;54;20517;-72
2021/11/11 08:09:45;;;;;;;36.50;25.40;;;5.90;99.90;;;;;;2613118;39;20487;-71
2021/11/11 08:12:11;;;;;;;33.03;26.57;;;6.50;99.60;;;;;;2612419;54;20429;-71
2021/11/11 08:14:39;;;;;;;31.03;24.50;;;7.20;99.90;;;;;;2612745;51;20959;-72
2021/11/11 08:17:05;;;;;;;36.50;24.10;;;7.20;99.70;;;;;;2612351;54;20404;-69
2021/11/11 08:19:31;;;;;;;38.93;26.30;;;7.50;94.60;;;;;;2611465;54;20415;-71
2021/11/11 08:21:57;;;;;;;29.07;22.97;;;7.00;93.80;;;;;;2613008;52;20407;-73
2021/11/11 08:24:23;;;;;;;33.07;24.20;;;6.80;96.00;;;;;;2613466;54;20512;-71
2021/11/11 08:26:49;;;;;;;33.13;25.00;;;6.60;95.10;;;;;;2612324;54;20407;-72
2021/11/11 08:29:14;;;;;;;32.67;25.07;;;6.70;94.30;;;;;;2614218;39;20557;-71
2021/11/11 08:31:40;;;;;;;35.70;26.00;;;7.20;98.60;;;;;;2614379;51;20435;-70
2021/11/11 08:34:06;;;;;;;33.73;26.33;;;7.50;95.60;;;;;;2613705;54;20199;-70
2021/11/11 08:36:32;;;;;;;30.80;26.97;;;7.80;93.50;;;;;;2614097;39;20841;-73
2021/11/11 08:38:59;;;;;;;37.90;26.43;;;7.50;91.20;;;;;;2611264;47;20171;-70
2021/11/11 08:41:26;;;;;;;28.40;24.10;;;7.30;96.40;;;;;;2609213;47;20459;-72
2021/11/11 08:43:53;;;;;;;30.93;25.47;;;7.30;96.10;;;;;;2629796;36;20898;-72
2021/11/11 08:46:19;;;;;;;30.30;23.97;;;6.60;93.60;;;;;;2608960;47;21205;-73
2021/11/11 08:48:45;;;;;;;30.63;21.70;;;6.80;97.00;;;;;;2610991;54;20554;-70
2021/11/11 08:51:12;;;;;;;29.37;21.53;;;7.30;94.30;;;;;;2611685;39;20798;-72
2021/11/11 08:53:39;;;;;;;31.13;23.30;;;7.20;91.40;;;;;;2610835;54;20153;-73
2021/11/11 08:56:05;;;;;;;31.43;22.27;;;6.70;95.80;;;;;;2608527;54;20964;-73
2021/11/11 08:58:34;;;;;;;28.60;23.93;;;6.70;93.20;;;;;;2648691;36;20547;-73
2021/11/11 09:01:01;;;;;;;26.53;21.07;;;7.40;97.00;;;;;;2614723;54;20972;-74
2021/11/11 09:03:28;;;;;;;30.07;20.40;;;7.90;90.80;;;;;;2614356;54;20396;-73
2021/11/11 09:05:55;;;;;;;28.53;22.30;;;7.40;91.20;;;;;;2614970;54;20395;-74
2021/11/11 09:08:21;;;;;;;26.83;21.60;;;7.10;93.60;;;;;;2614593;54;20386;-72
2021/11/11 09:10:48;;;;;;;27.57;20.93;;;8.20;95.50;;;;;;2615314;54;21251;-73
2021/11/11 09:13:13;;;;;;;34.40;20.83;;;9.40;86.90;;;;;;2613978;54;20422;-74
2021/11/11 09:18:12;;;;;;;32.20;20.97;;;9.10;88.30;;;;;;2611236;47;20171;-80
2021/11/11 09:20:39;;;;;;;25.00;19.30;;;9.10;87.50;;;;;;2614015;54;20418;-81
2021/11/11 09:23:07;;;;;;;30.10;22.07;;;9.90;89.30;;;;;;2613505;46;20451;-82
2021/11/11 09:25:35;;;;;;;26.60;19.70;;;11.10;85.30;;;;;;2614924;54;20422;-80
2021/11/11 09:28:02;;;;;;;25.60;21.40;;;11.80;76.80;;;;;;2615130;54;20408;-80
2021/11/11 09:30:37;;;;;;;23.13;19.27;;;11.30;76.30;;;;;;2614704;54;20437;-81
2021/11/11 09:33:05;;;;;;;24.20;19.10;;;11.70;76.70;;;;;;2614554;39;20834;-81
2021/11/11 09:35:31;;;;;;;29.00;21.20;;;11.90;73.40;;;;;;2615396;54;20423;-81
2021/11/11 09:37:58;;;;;;;33.10;20.60;;;12.10;78.20;;;;;;2615385;54;20488;-79
2021/11/11 09:40:27;;;;;;;24.70;19.83;;;12.90;73.30;;;;;;2615817;39;20793;-78
2021/11/11 09:42:55;;;;;;;29.37;20.13;;;14.40;71.10;;;;;;2615324;47;20430;-82
2021/11/11 09:45:25;;;;;;;28.77;21.57;;;15.60;61.70;;;;;;2616575;54;20442;-81
2021/11/11 09:47:53;;;;;;;24.67;19.80;;;14.50;63.10;;;;;;2616043;54;20446;-81
2021/11/11 09:50:24;;;;;;;30.83;21.27;;;13.20;69.00;;;;;;2616342;54;20430;-81
2021/11/11 09:52:51;;;;;;;31.13;23.43;;;13.30;71.20;;;;;;2616548;54;20449;-81
2021/11/11 10:00:57;;;;;;;31.43;21.97;;;16.50;56.60;;;;;;2615946;54;20466;-80
2021/11/11 10:03:23;;;;;;;27.07;20.00;;;14.90;62.40;;;;;;2616749;54;20426;-81
2021/11/11 10:05:50;;;;;;;32.10;22.20;;;13.60;67.70;;;;;;2616104;54;21014;-81
2021/11/11 10:08:43;;;;;;;28.53;19.20;;;13.40;69.00;;;;;;2617071;54;20399;-83
2021/11/11 10:11:24;;;;;;;30.90;21.07;;;12.90;68.80;;;;;;2616547;39;20866;-81
2021/11/11 10:13:57;;;;;;;26.13;19.43;;;12.40;71.00;;;;;;2616929;54;20438;-82
2021/11/11 10:16:23;;;;;;;25.23;20.50;;;12.30;72.00;;;;;;2614879;46;20554;-81
2021/11/11 10:18:57;;;;;;;29.60;21.90;;;12.50;70.60;;;;;;2616198;54;20448;-81
2021/11/11 10:21:57;;;;;;;32.10;21.07;;;13.10;69.10;;;;;;2617152;54;20457;-81
2021/11/11 10:24:33;;;;;;;28.80;21.37;;;14.40;63.70;;;;;;2616741;47;20510;-82
2021/11/11 10:27:13;;;;;;;30.20;20.50;;;15.50;59.50;;;;;;2616916;54;20430;-82
2021/11/11 10:29:49;;;;;;;36.67;21.43;;;16.20;57.50;;;;;;2616665;47;20419;-79
2021/11/11 10:32:30;;;;;;;30.93;19.53;;;16.50;56.70;;;;;;2617745;54;20431;-80
2021/11/11 10:35:15;;;;;;;29.47;20.63;;;14.80;61.70;;;;;;2616361;54;20467;-82
2021/11/11 10:37:49;;;;;;;25.33;19.83;;;15.60;61.10;;;;;;2616699;54;20988;-79
2021/11/11 10:40:40;;;;;;;30.27;21.00;;;15.20;60.00;;;;;;2616738;47;20428;-79
2021/11/11 10:43:14;;;;;;;29.43;21.33;;;15.80;58.70;;;;;;2616971;54;20399;-80
2021/11/11 10:45:56;;;;;;;29.37;20.37;;;14.90;61.90;;;;;;2618326;54;20438;-84
2021/11/11 10:49:19;;;;;;;30.03;20.80;;;16.20;59.80;;;;;;2615999;54;20415;-83
2021/11/11 10:52:43;;;;;;;;;;;;;;;;;;;;;
2021/11/11 10:55:39;;;;;;;33.37;23.83;;;16.90;56.70;;;;;;2616193;47;20472;-82
2021/11/11 10:58:08;;;;;;;26.70;22.00;;;15.10;60.20;;;;;;2615642;47;20428;-80
2021/11/11 11:00:41;;;;;;;29.63;22.90;;;14.00;65.20;;;;;;2616272;54;20431;-80
2021/11/11 11:03:17;;;;;;;39.50;23.43;;;15.50;60.70;;;;;;2616524;54;20415;-80
2021/11/11 11:05:55;;;;;;;33.33;23.57;;;16.30;57.30;;;;;;2615525;51;20455;-81
2021/11/11 11:08:32;;;;;;;29.93;22.17;;;15.30;61.40;;;;;;2615726;54;20418;-81
2021/11/11 11:11:38;;;;;;;30.43;22.40;;;16.80;56.70;;;;;;2615539;47;20416;-79
2021/11/11 11:14:18;;;;;;;29.63;23.70;;;17.30;55.30;;;;;;2615423;54;20474;-80
2021/11/11 11:16:45;;;;;;;30.17;21.43;;;15.20;61.30;;;;;;2615138;54;20437;-80
2021/11/11 11:19:14;;;;;;;28.77;24.23;;;14.50;63.10;;;;;;2614951;54;20443;-81
2021/11/11 11:21:48;;;;;;;28.63;22.17;;;15.90;58.10;;;;;;2617090;54;20424;-81
2021/11/11 11:24:25;;;;;;;33.03;22.67;;;16.60;56.40;;;;;;2614944;54;20391;-83
2021/11/11 11:26:57;;;;;;;34.70;24.40;;;16.90;55.90;;;;;;2614628;54;20411;-81
2021/11/11 11:29:36;;;;;;;24.70;21.60;;;16.30;57.60;;;;;;2616615;54;20407;-82
2021/11/11 11:34:33;;;;;;;36.50;22.80;;;16.60;56.40;;;;;;2615824;54;20476;-82
2021/11/11 11:37:04;;;;;;;41.27;24.50;;;17.10;55.70;;;;;;2614196;54;21018;-81
2021/11/11 11:39:34;;;;;;;28.80;23.70;;;17.80;54.50;;;;;;2615662;54;20424;-82
2021/11/11 11:42:07;;;;;;;33.60;24.30;;;18.10;52.60;;;;;;2615074;47;20415;-82
2021/11/11 11:44:36;;;;;;;35.57;24.00;;;16.40;55.90;;;;;;2615797;46;20435;-81
2021/11/11 11:47:11;;;;;;;32.20;23.13;;;15.50;58.80;;;;;;2614385;47;20416;-83
2021/11/11 11:49:39;;;;;;;33.80;23.73;;;14.40;62.90;;;;;;2616515;54;20399;-81
2021/11/11 11:52:08;;;;;;;30.57;25.77;;;13.80;65.50;;;;;;2614179;54;20491;-80
2021/11/11 11:54:52;;;;;;;31.00;22.80;;;13.90;64.70;;;;;;2615820;46;20948;-82
2021/11/11 11:57:27;;;;;;;35.00;23.87;;;13.90;64.80;;;;;;2615163;47;20466;-81
2021/11/11 12:00:07;;;;;;;31.10;23.00;;;13.80;66.20;;;;;;2615745;54;20435;-82
2021/11/11 12:02:43;;;;;;;40.47;24.37;;;13.20;67.20;;;;;;2616514;54;20422;-81
2021/11/11 12:05:22;;;;;;;34.93;23.30;;;12.50;68.80;;;;;;2615847;54;20415;-80
2021/11/11 12:08:01;;;;;;;35.57;26.57;;;12.10;73.00;;;;;;2615885;54;20395;-81
2021/11/11 12:41:19;;;;;;;33.60;23.23;;;12.90;71.10;;;;;;2611836;54;21023;-76
2021/11/11 12:44:12;;;;;;;30.33;23.40;;;12.80;71.10;;;;;;2612482;54;20399;-75
2021/11/11 12:46:41;;;;;;;28.90;22.23;;;13.00;71.30;;;;;;2613656;39;20818;-76
2021/11/11 12:49:36;;;;;;;31.60;21.97;;;11.50;76.00;;;;;;2613627;54;20406;-74
2021/11/11 12:52:22;;;;;;;33.70;23.43;;;11.50;78.40;;;;;;2614445;47;20467;-75
2021/11/11 12:54:49;;;;;;;32.80;23.10;;;11.40;78.70;;;;;;2612845;54;20407;-75
2021/11/11 12:57:16;;;;;;;31.70;20.87;;;11.70;77.00;;;;;;2613653;54;20439;-76
2021/11/11 12:59:42;;;;;;;29.23;22.60;;;11.70;76.60;;;;;;2649045;36;20479;-76
2021/11/11 13:02:09;;;;;;;30.80;20.90;;;11.50;78.20;;;;;;2612364;31;22433;-75
2021/11/11 13:04:47;;;;;;;28.97;22.87;;;11.60;77.00;;;;;;2612571;54;20386;-76
2021/11/11 13:07:33;;;;;;;31.87;22.43;;;12.00;74.90;;;;;;2613256;54;20436;-75
2021/11/11 13:10:05;;;;;;;36.30;22.17;;;12.60;74.40;;;;;;2614793;54;20410;-74
2021/11/11 13:12:33;;;;;;;30.10;21.90;;;12.70;74.30;;;;;;2614969;39;20774;-76
2021/11/11 13:15:08;;;;;;;32.80;23.57;;;12.80;73.20;;;;;;2613806;51;20412;-75
2021/11/11 13:17:42;;;;;;;30.77;22.53;;;12.60;73.40;;;;;;2615418;54;20454;-76
2021/11/11 13:20:31;;;;;;;42.30;23.77;;;12.20;73.40;;;;;;2615035;54;20419;-75
2021/11/11 13:23:09;;;;;;;35.23;23.87;;;11.80;76.30;;;;;;2613024;54;20419;-77
2021/11/11 14:28:08;;;;;;;43.57;24.23;;;11.10;79.50;;;;;;2613372;54;20443;-74
2021/11/11 15:57:04;;;;;;;34.87;26.50;;;11.00;88.50;;;;;;2614254;54;20975;-74
2021/11/11 16:25:14;;;;;;;45.47;25.77;;;11.60;86.00;;;;;;2611033;54;20440;-75
2021/11/11 16:27:40;;;;;;;38.90;25.00;;;11.50;84.60;;;;;;2612460;54;22917;-77
2021/11/11 16:30:16;;;;;;;39.63;24.60;;;11.20;87.00;;;;;;2612724;54;20452;-76
2021/11/11 16:32:42;;;;;;;49.57;26.47;;;11.10;87.10;;;;;;2613471;54;20434;-75
2021/11/11 16:35:11;;;;;;;35.20;27.27;;;11.30;86.40;;;;;;2612591;54;20428;-75
2021/11/11 16:37:39;;;;;;;38.17;26.50;;;11.40;86.40;;;;;;2612412;54;20419;-75
2021/11/11 16:40:07;;;;;;;43.47;26.40;;;11.20;86.40;;;;;;2614161;54;20400;-73
2021/11/11 16:42:33;;;;;;;45.23;24.67;;;10.80;87.50;;;;;;2611933;54;20544;-74
2021/11/11 16:44:59;;;;;;;38.40;25.20;;;11.00;87.00;;;;;;2613202;54;20986;-73
2021/11/11 16:47:25;;;;;;;41.80;25.17;;;10.70;88.50;;;;;;2612519;54;20411;-74
2021/11/11 16:49:51;;;;;;;40.33;25.10;;;10.70;88.20;;;;;;2614319;39;20534;-73
2021/11/11 16:52:17;;;;;;;45.77;26.60;;;10.60;88.20;;;;;;2612948;39;20978;-73